createdAt,value
2017-08-25T00:00:53.633Z,17.30
2017-08-25T00:03:21.571Z,17.30
2017-08-25T00:05:49.915Z,17.30
2017-08-25T00:08:18.375Z,17.60
2017-08-25T00:10:46.843Z,18.20
2017-08-25T00:13:15.317Z,18.10
2017-08-25T00:15:43.874Z,17.90
2017-08-25T00:18:12.338Z,17.80
2017-08-25T00:20:40.795Z,17.80
2017-08-25T00:23:09.295Z,17.60
2017-08-25T00:25:37.757Z,17.50
2017-08-25T00:28:06.219Z,17.40
2017-08-25T00:30:34.725Z,17.30
2017-08-25T00:33:03.165Z,17.30
2017-08-25T00:35:31.617Z,17.50
2017-08-25T00:38:00.110Z,17.50
2017-08-25T00:40:28.551Z,17.50
2017-08-25T00:42:56.855Z,17.40
2017-08-25T00:45:25.353Z,17.30
2017-08-25T00:47:53.837Z,17.20
2017-08-25T00:50:21.954Z,17.10
2017-08-25T00:53:05.468Z,17.10
2017-08-25T00:55:33.921Z,17.00
2017-08-25T00:58:02.398Z,17.00
2017-08-25T01:00:30.855Z,17.00
2017-08-25T01:02:59.310Z,17.00
2017-08-25T01:05:27.099Z,16.90
2017-08-25T01:07:54.847Z,16.90
2017-08-25T01:10:23.362Z,16.80
2017-08-25T01:12:51.863Z,16.70
2017-08-25T01:15:20.326Z,16.60
2017-08-25T01:17:48.446Z,16.60
2017-08-25T01:20:16.553Z,16.70
2017-08-25T01:22:44.645Z,16.80
2017-08-25T01:25:12.762Z,16.80
2017-08-25T01:27:40.565Z,16.80
2017-08-25T01:30:09.049Z,16.80
2017-08-25T01:32:37.194Z,16.70
2017-08-25T01:35:05.303Z,16.60
2017-08-25T01:37:33.065Z,16.60
2017-08-25T01:40:00.830Z,16.60
2017-08-25T01:42:28.660Z,16.70
2017-08-25T01:44:56.767Z,16.80
2017-08-25T01:47:24.543Z,17.00
2017-08-25T01:49:52.370Z,17.30
2017-08-25T01:52:20.475Z,17.30
2017-08-25T01:54:48.677Z,17.40
2017-08-25T01:57:17.142Z,17.30
2017-08-25T01:59:45.222Z,17.20
2017-08-25T02:02:13.655Z,17.20
2017-08-25T02:04:42.134Z,17.10
2017-08-25T02:07:10.595Z,17.00
2017-08-25T02:09:39.073Z,16.90
2017-08-25T02:12:07.219Z,16.80
2017-08-25T02:14:35.679Z,16.70
2017-08-25T02:17:03.791Z,16.60
2017-08-25T02:19:32.746Z,16.50
2017-08-25T02:22:01.174Z,16.50
2017-08-25T02:24:29.664Z,16.50
2017-08-25T02:26:58.151Z,16.40
2017-08-25T02:29:26.597Z,16.40
2017-08-25T02:31:55.104Z,16.60
2017-08-25T02:34:23.655Z,16.50
2017-08-25T02:36:52.111Z,16.70
2017-08-25T02:39:20.601Z,16.70
2017-08-25T02:41:49.113Z,16.90
2017-08-25T02:44:17.561Z,17.30
2017-08-25T02:46:45.988Z,17.50
2017-08-25T02:49:14.487Z,17.70
2017-08-25T02:51:42.949Z,17.80
2017-08-25T02:54:11.388Z,17.60
2017-08-25T02:56:39.882Z,17.40
2017-08-25T02:59:08.354Z,17.30
2017-08-25T03:01:36.851Z,17.30
2017-08-25T03:04:05.301Z,17.10
2017-08-25T03:06:33.758Z,17.00
2017-08-25T03:09:02.188Z,17.00
2017-08-25T03:11:30.702Z,17.00
2017-08-25T03:13:59.161Z,17.20
2017-08-25T03:16:27.655Z,17.20
2017-08-25T03:18:56.134Z,17.40
2017-08-25T03:21:24.582Z,17.50
2017-08-25T03:23:53.103Z,17.40
2017-08-25T03:26:21.605Z,17.40
2017-08-25T03:28:50.106Z,17.70
2017-08-25T03:31:18.577Z,17.90
2017-08-25T03:33:47.063Z,18.00
2017-08-25T03:36:15.579Z,18.00
2017-08-25T03:38:44.021Z,18.10
2017-08-25T03:41:12.472Z,18.00
2017-08-25T03:43:41.021Z,17.80
2017-08-25T03:46:09.537Z,17.50
2017-08-25T03:48:37.998Z,17.20
2017-08-25T03:51:06.503Z,17.00
2017-08-25T03:53:34.986Z,16.70
2017-08-25T03:56:03.444Z,16.60
2017-08-25T03:58:32.218Z,16.80
2017-08-25T04:01:00.670Z,16.80
2017-08-25T04:03:29.160Z,16.80
2017-08-25T04:05:57.596Z,16.70
2017-08-25T04:08:26.049Z,16.50
2017-08-25T04:10:54.518Z,16.50
2017-08-25T04:13:23.002Z,16.60
2017-08-25T04:15:51.474Z,16.70
2017-08-25T04:18:19.980Z,16.80
2017-08-25T04:20:48.466Z,16.80
2017-08-25T04:23:16.922Z,16.90
2017-08-25T04:25:45.367Z,16.90
2017-08-25T04:28:13.831Z,16.90
2017-08-25T04:30:42.311Z,16.90
2017-08-25T04:33:10.814Z,17.20
2017-08-25T04:35:39.300Z,17.30
2017-08-25T04:38:07.810Z,17.50
2017-08-25T04:40:36.866Z,17.80
2017-08-25T04:43:05.311Z,18.00
2017-08-25T04:45:35.346Z,18.20
2017-08-25T04:48:03.831Z,18.40
2017-08-25T04:50:32.313Z,18.40
2017-08-25T04:53:05.284Z,18.40
2017-08-25T04:55:33.730Z,18.50
2017-08-25T04:58:02.218Z,18.60
2017-08-25T05:00:30.696Z,18.80
2017-08-25T05:03:00.486Z,19.00
2017-08-25T05:05:28.961Z,19.20
2017-08-25T05:07:57.414Z,19.30
2017-08-25T05:10:25.952Z,19.30
2017-08-25T05:12:55.365Z,19.40
2017-08-25T05:15:24.081Z,19.60
2017-08-25T05:17:52.551Z,19.70
2017-08-25T05:20:22.442Z,19.70
2017-08-25T05:22:50.913Z,19.80
2017-08-25T05:25:19.369Z,19.90
2017-08-25T05:27:47.943Z,20.00
2017-08-25T05:30:16.410Z,20.10
2017-08-25T05:32:44.850Z,20.20
2017-08-25T05:35:13.346Z,20.30
2017-08-25T05:37:41.807Z,20.30
2017-08-25T05:40:11.031Z,20.60
2017-08-25T05:42:39.507Z,20.60
2017-08-25T05:45:07.820Z,20.90
2017-08-25T05:47:36.265Z,20.80
2017-08-25T05:50:04.747Z,20.90
2017-08-25T05:52:33.206Z,20.90
2017-08-25T05:55:01.696Z,21.00
2017-08-25T05:57:30.155Z,21.20
2017-08-25T05:59:58.602Z,21.60
2017-08-25T06:02:27.051Z,22.00
2017-08-25T06:04:55.560Z,22.40
2017-08-25T06:07:24.045Z,22.60
2017-08-25T06:09:52.516Z,22.60
2017-08-25T06:12:27.878Z,22.70
2017-08-25T06:14:56.326Z,22.70
2017-08-25T06:17:24.771Z,23.10
2017-08-25T06:19:53.271Z,23.00
2017-08-25T06:22:21.721Z,23.00
2017-08-25T06:24:50.171Z,23.00
2017-08-25T06:27:18.660Z,23.20
2017-08-25T06:30:03.581Z,23.50
2017-08-25T06:32:32.062Z,23.80
2017-08-25T06:35:00.518Z,24.30
2017-08-25T06:37:28.947Z,24.50
2017-08-25T06:39:57.413Z,24.80
2017-08-25T06:42:25.580Z,25.20
2017-08-25T06:44:54.246Z,25.50
2017-08-25T06:47:22.842Z,26.40
2017-08-25T06:49:51.284Z,26.50
2017-08-25T06:52:19.751Z,26.80
2017-08-25T06:54:48.222Z,27.20
2017-08-25T06:57:16.647Z,27.70
2017-08-25T06:59:45.102Z,27.90
2017-08-25T07:02:13.638Z,27.70
2017-08-25T07:04:42.085Z,28.10
2017-08-25T07:07:10.522Z,29.00
2017-08-25T07:09:38.969Z,29.40
2017-08-25T07:12:07.426Z,29.50
2017-08-25T07:14:35.878Z,28.70
2017-08-25T07:17:04.358Z,27.70
2017-08-25T07:19:32.806Z,27.90
2017-08-25T07:22:01.281Z,27.70
2017-08-25T07:24:29.802Z,27.70
2017-08-25T07:26:58.259Z,27.70
2017-08-25T07:29:26.798Z,27.70
2017-08-25T07:31:55.262Z,28.10
2017-08-25T07:34:23.737Z,28.20
2017-08-25T07:36:53.442Z,28.10
2017-08-25T07:39:23.570Z,29.10
2017-08-25T07:41:52.005Z,30.20
2017-08-25T07:44:20.462Z,31.20
2017-08-25T07:46:48.939Z,31.80
2017-08-25T07:49:17.882Z,32.20
2017-08-25T07:51:47.151Z,33.80
2017-08-25T07:54:15.636Z,33.70
2017-08-25T07:56:44.086Z,33.90
2017-08-25T07:59:13.502Z,34.80
2017-08-25T08:01:41.997Z,34.30
2017-08-25T08:04:10.456Z,33.50
2017-08-25T08:06:38.922Z,33.30
2017-08-25T08:09:07.390Z,34.00
2017-08-25T08:11:37.963Z,35.10
2017-08-25T08:14:06.407Z,35.10
2017-08-25T08:16:34.935Z,35.30
2017-08-25T08:19:03.419Z,35.80
2017-08-25T08:21:31.913Z,35.80
2017-08-25T08:24:00.382Z,36.60
2017-08-25T08:26:28.860Z,37.20
2017-08-25T08:28:57.307Z,37.80
2017-08-25T08:31:30.531Z,37.60
2017-08-25T08:34:02.788Z,38.20
2017-08-25T08:36:36.615Z,38.50
2017-08-25T08:39:04.377Z,36.30
2017-08-25T08:41:32.851Z,36.00
2017-08-25T08:44:01.326Z,36.70
2017-08-25T08:46:29.797Z,36.20
2017-08-25T08:48:58.212Z,36.90
2017-08-25T08:51:26.677Z,38.20
2017-08-25T08:53:55.154Z,37.80
2017-08-25T08:56:23.631Z,37.90
2017-08-25T08:58:52.074Z,38.90
2017-08-25T09:01:21.654Z,38.70
2017-08-25T09:03:50.107Z,38.80
2017-08-25T09:06:24.042Z,38.00
2017-08-25T09:08:52.567Z,38.40
2017-08-25T09:11:21.023Z,38.10
2017-08-25T09:13:49.483Z,37.50
2017-08-25T09:16:17.995Z,36.10
2017-08-25T09:18:46.455Z,35.80
2017-08-25T09:21:14.900Z,36.60
2017-08-25T09:23:43.577Z,37.00
2017-08-25T09:26:12.031Z,37.30
2017-08-25T09:28:40.517Z,38.20
2017-08-25T09:31:08.990Z,38.00
2017-08-25T09:33:37.451Z,37.70
2017-08-25T09:36:05.897Z,37.80
2017-08-25T09:38:34.386Z,37.40
2017-08-25T09:41:02.871Z,37.70
2017-08-25T09:43:31.173Z,37.90
2017-08-25T09:45:59.662Z,38.10
2017-08-25T09:48:28.167Z,38.40
2017-08-25T09:50:56.790Z,38.40
2017-08-25T09:53:25.258Z,37.50
2017-08-25T09:55:53.534Z,38.10
2017-08-25T09:58:21.836Z,38.20
2017-08-25T10:00:50.114Z,38.10
2017-08-25T10:03:18.623Z,39.00
2017-08-25T10:05:46.802Z,39.20
2017-08-25T10:08:15.279Z,39.20
2017-08-25T10:10:43.725Z,39.30
2017-08-25T10:13:12.222Z,39.70
2017-08-25T10:15:42.750Z,40.20
2017-08-25T10:18:14.220Z,39.60
2017-08-25T10:20:42.665Z,38.90
2017-08-25T10:23:11.119Z,39.00
2017-08-25T10:25:39.664Z,38.90
2017-08-25T10:28:08.130Z,38.90
2017-08-25T10:30:36.555Z,39.00
2017-08-25T10:33:16.059Z,38.70
2017-08-25T10:35:55.482Z,39.10
2017-08-25T10:38:35.050Z,38.80
2017-08-25T10:41:14.558Z,39.10
2017-08-25T10:43:54.131Z,38.40
2017-08-25T10:46:22.234Z,38.70
2017-08-25T10:48:50.693Z,38.20
2017-08-25T10:51:19.149Z,38.60
2017-08-25T10:53:47.638Z,38.90
2017-08-25T10:56:16.093Z,38.50
2017-08-25T10:58:44.582Z,39.10
2017-08-25T11:01:13.083Z,38.40
2017-08-25T11:03:41.552Z,38.40
2017-08-25T11:06:10.082Z,38.40
2017-08-25T11:08:38.548Z,38.40
2017-08-25T11:11:07.030Z,38.10
2017-08-25T11:13:35.521Z,38.30
2017-08-25T11:16:03.966Z,38.10
2017-08-25T11:18:32.486Z,38.20
2017-08-25T11:21:00.926Z,38.90
2017-08-25T11:23:29.381Z,39.00
2017-08-25T11:25:57.838Z,38.50
2017-08-25T11:28:31.160Z,38.90
2017-08-25T11:30:59.618Z,38.00
2017-08-25T11:33:28.075Z,37.60
2017-08-25T11:35:56.498Z,37.30
2017-08-25T11:38:24.996Z,37.40
2017-08-25T11:40:54.213Z,37.40
2017-08-25T11:43:22.650Z,37.40
2017-08-25T11:45:51.126Z,37.20
2017-08-25T11:48:19.597Z,37.30
2017-08-25T11:50:48.029Z,37.70
2017-08-25T11:53:16.535Z,37.10
2017-08-25T11:55:44.985Z,37.40
2017-08-25T11:58:13.430Z,38.20
2017-08-25T12:00:41.909Z,38.40
2017-08-25T12:03:10.364Z,38.20
2017-08-25T12:05:38.780Z,37.80
2017-08-25T12:08:07.210Z,37.60
2017-08-25T12:10:35.666Z,37.90
2017-08-25T12:13:04.133Z,38.40
2017-08-25T12:15:32.611Z,38.00
2017-08-25T12:18:01.091Z,37.90
2017-08-25T12:20:29.986Z,37.50
2017-08-25T12:22:58.449Z,36.80
2017-08-25T12:25:26.907Z,37.30
2017-08-25T12:27:55.356Z,37.70
2017-08-25T12:30:23.834Z,37.50
2017-08-25T12:32:52.122Z,36.40
2017-08-25T12:35:20.573Z,36.50
2017-08-25T12:37:49.043Z,35.70
2017-08-25T12:40:17.477Z,34.50
2017-08-25T12:42:45.978Z,33.60
2017-08-25T12:45:14.445Z,32.90
2017-08-25T12:47:42.885Z,32.90
2017-08-25T12:50:11.375Z,32.50
2017-08-25T12:52:39.933Z,33.40
2017-08-25T12:55:08.611Z,34.10
2017-08-25T12:57:37.074Z,34.70
2017-08-25T13:00:05.753Z,34.50
2017-08-25T13:02:34.238Z,34.40
2017-08-25T13:05:02.686Z,35.00
2017-08-25T13:07:31.118Z,34.70
2017-08-25T13:09:59.585Z,34.70
2017-08-25T13:12:28.061Z,34.00
2017-08-25T13:14:56.542Z,33.40
2017-08-25T13:17:25.015Z,33.10
2017-08-25T13:19:53.470Z,32.90
2017-08-25T13:22:21.916Z,32.90
2017-08-25T13:24:50.377Z,32.90
2017-08-25T13:27:18.842Z,32.40
2017-08-25T13:29:47.287Z,31.40
2017-08-25T13:32:15.755Z,30.80
2017-08-25T13:34:44.242Z,31.30
2017-08-25T13:37:12.693Z,32.10
2017-08-25T13:39:41.152Z,31.70
2017-08-25T13:42:09.659Z,32.20
2017-08-25T13:44:38.113Z,32.20
2017-08-25T13:47:06.607Z,31.20
2017-08-25T13:49:35.116Z,31.00
2017-08-25T13:52:03.582Z,30.20
2017-08-25T13:54:32.058Z,29.80
2017-08-25T13:57:00.550Z,29.40
2017-08-25T13:59:29.699Z,29.00
2017-08-25T14:01:58.250Z,28.70
2017-08-25T14:04:26.702Z,28.70
2017-08-25T14:06:55.519Z,28.40
2017-08-25T14:09:24.040Z,28.50
2017-08-25T14:11:52.504Z,28.40
2017-08-25T14:14:20.985Z,28.50
2017-08-25T14:16:49.485Z,28.80
2017-08-25T14:19:17.913Z,29.10
2017-08-25T14:21:46.326Z,29.50
2017-08-25T14:24:14.773Z,30.00
2017-08-25T14:26:43.210Z,29.70
2017-08-25T14:29:11.663Z,29.90
2017-08-25T14:31:40.189Z,29.90
2017-08-25T14:34:08.645Z,29.30
2017-08-25T14:36:37.101Z,29.20
2017-08-25T14:39:05.234Z,28.90
2017-08-25T14:41:33.710Z,28.30
2017-08-25T14:44:02.214Z,27.90
2017-08-25T14:46:33.522Z,27.60
2017-08-25T14:49:02.057Z,27.20
2017-08-25T14:51:32.312Z,27.00
2017-08-25T14:54:00.977Z,26.80
2017-08-25T14:56:29.465Z,26.60
2017-08-25T14:59:00.542Z,26.40
2017-08-25T15:01:29.958Z,26.10
2017-08-25T15:03:58.436Z,26.00
2017-08-25T15:06:26.894Z,25.80
2017-08-25T15:08:55.353Z,25.80
2017-08-25T15:11:26.273Z,25.70
2017-08-25T15:13:54.723Z,25.80
2017-08-25T15:16:23.250Z,25.70
2017-08-25T15:18:52.265Z,25.80
2017-08-25T15:21:20.713Z,25.60
2017-08-25T15:23:49.173Z,25.60
2017-08-25T15:26:20.234Z,25.50
2017-08-25T15:28:49.961Z,25.40
2017-08-25T15:31:21.345Z,25.40
2017-08-25T15:33:49.805Z,25.20
2017-08-25T15:36:18.295Z,25.40
2017-08-25T15:38:48.807Z,25.20
2017-08-25T15:41:17.255Z,25.10
2017-08-25T15:43:45.761Z,25.00
2017-08-25T15:46:14.246Z,25.00
2017-08-25T15:48:43.149Z,25.20
2017-08-25T15:51:11.814Z,25.20
2017-08-25T15:53:41.818Z,25.20
2017-08-25T15:56:10.266Z,25.20
2017-08-25T15:58:38.731Z,25.30
2017-08-25T16:01:07.211Z,25.50
2017-08-25T16:03:35.660Z,25.70
2017-08-25T16:06:04.112Z,25.90
2017-08-25T16:08:32.579Z,26.10
2017-08-25T16:11:01.058Z,26.30
2017-08-25T16:13:30.267Z,26.20
2017-08-25T16:15:59.486Z,26.30
2017-08-25T16:18:27.966Z,26.20
2017-08-25T16:20:56.413Z,26.30
2017-08-25T16:23:24.930Z,26.30
2017-08-25T16:25:53.371Z,26.50
2017-08-25T16:28:21.818Z,26.60
2017-08-25T16:30:50.278Z,26.40
2017-08-25T16:33:18.746Z,26.10
2017-08-25T16:35:47.198Z,26.10
2017-08-25T16:38:15.687Z,25.90
2017-08-25T16:40:44.130Z,25.50
2017-08-25T16:43:12.578Z,25.30
2017-08-25T16:45:41.103Z,25.20
2017-08-25T16:48:09.543Z,25.00
2017-08-25T16:50:37.987Z,24.80
2017-08-25T16:53:06.463Z,24.60
2017-08-25T16:55:34.933Z,24.40
2017-08-25T16:58:03.383Z,24.10
2017-08-25T17:00:31.904Z,23.90
2017-08-25T17:03:00.423Z,23.80
2017-08-25T17:05:28.879Z,23.60
2017-08-25T17:07:57.475Z,23.40
2017-08-25T17:10:27.689Z,23.30
2017-08-25T17:12:56.149Z,23.20
2017-08-25T17:15:24.417Z,23.00
2017-08-25T17:17:52.926Z,22.90
2017-08-25T17:20:21.386Z,22.80
2017-08-25T17:22:49.890Z,22.70
2017-08-25T17:25:18.345Z,22.60
2017-08-25T17:27:46.800Z,22.50
2017-08-25T17:30:30.166Z,22.40
2017-08-25T17:32:58.620Z,22.30
2017-08-25T17:35:30.598Z,22.10
2017-08-25T17:38:00.756Z,21.80
2017-08-25T17:40:29.221Z,21.70
2017-08-25T17:42:58.306Z,21.60
2017-08-25T17:45:27.536Z,21.40
2017-08-25T17:47:57.555Z,21.40
2017-08-25T17:50:26.098Z,21.30
2017-08-25T17:52:57.305Z,21.30
2017-08-25T17:55:25.749Z,21.10
2017-08-25T17:57:54.271Z,21.00
2017-08-25T18:00:42.392Z,20.80
2017-08-25T18:03:10.845Z,20.80
2017-08-25T18:05:39.333Z,20.70
2017-08-25T18:08:07.837Z,20.60
2017-08-25T18:10:36.300Z,20.60
2017-08-25T18:13:05.890Z,20.50
2017-08-25T18:15:36.666Z,20.40
2017-08-25T18:18:05.155Z,20.30
2017-08-25T18:20:33.624Z,20.20
2017-08-25T18:23:03.973Z,20.20
2017-08-25T18:25:32.465Z,20.10
2017-08-25T18:28:00.930Z,20.00
2017-08-25T18:30:30.199Z,19.90
2017-08-25T18:33:00.308Z,20.00
2017-08-25T18:35:31.630Z,19.90
2017-08-25T18:38:00.090Z,19.80
2017-08-25T18:40:31.191Z,19.60
2017-08-25T18:43:00.889Z,19.50
2017-08-25T18:45:29.377Z,19.50
2017-08-25T18:47:57.968Z,19.40
2017-08-25T18:50:26.424Z,19.30
2017-08-25T18:52:54.866Z,19.30
2017-08-25T18:55:23.833Z,19.20
2017-08-25T18:57:53.286Z,19.20
2017-08-25T19:00:21.801Z,19.20
2017-08-25T19:02:50.276Z,19.10
2017-08-25T19:05:18.719Z,19.00
2017-08-25T19:07:47.190Z,18.90
2017-08-25T19:10:15.687Z,18.90
2017-08-25T19:12:44.157Z,18.90
2017-08-25T19:15:12.626Z,18.80
2017-08-25T19:17:41.090Z,18.70
2017-08-25T19:20:09.604Z,18.70
2017-08-25T19:22:38.075Z,18.70
2017-08-25T19:25:06.530Z,18.50
2017-08-25T19:27:35.002Z,18.50
2017-08-25T19:30:03.520Z,18.50
2017-08-25T19:32:32.013Z,18.50
2017-08-25T19:35:00.455Z,18.50
2017-08-25T19:37:37.699Z,18.40
2017-08-25T19:40:06.301Z,18.40
2017-08-25T19:42:34.949Z,18.40
2017-08-25T19:45:03.544Z,18.40
2017-08-25T19:47:32.034Z,18.30
2017-08-25T19:50:02.959Z,18.40
2017-08-25T19:52:31.405Z,18.30
2017-08-25T19:54:59.962Z,18.20
2017-08-25T19:57:31.977Z,18.10
2017-08-25T20:00:00.494Z,18.10
2017-08-25T20:02:32.002Z,18.20
2017-08-25T20:05:00.465Z,18.20
2017-08-25T20:07:29.017Z,18.10
2017-08-25T20:09:57.473Z,18.00
2017-08-25T20:12:29.640Z,18.00
2017-08-25T20:15:01.603Z,18.00
2017-08-25T20:17:33.671Z,18.00
2017-08-25T20:20:02.271Z,18.00
2017-08-25T20:22:30.770Z,18.00
2017-08-25T20:24:59.217Z,17.90
2017-08-25T20:27:27.662Z,17.90
2017-08-25T20:29:56.362Z,17.90
2017-08-25T20:32:24.848Z,17.90
2017-08-25T20:34:53.378Z,17.80
2017-08-25T20:37:21.835Z,17.80
2017-08-25T20:39:50.334Z,17.80
2017-08-25T20:42:18.801Z,17.80
2017-08-25T20:44:47.226Z,17.80
2017-08-25T20:47:15.690Z,17.80
2017-08-25T20:49:44.167Z,17.80
2017-08-25T20:52:12.605Z,17.70
2017-08-25T20:54:41.080Z,17.70
2017-08-25T20:57:09.599Z,17.60
2017-08-25T20:59:38.050Z,17.60
2017-08-25T21:02:06.534Z,17.60
2017-08-25T21:04:35.009Z,17.70
2017-08-25T21:07:03.467Z,17.70
2017-08-25T21:09:32.005Z,17.70
2017-08-25T21:12:00.486Z,17.60
2017-08-25T21:14:28.936Z,17.60
2017-08-25T21:16:57.398Z,17.60
2017-08-25T21:19:25.839Z,17.70
2017-08-25T21:21:54.394Z,17.70
2017-08-25T21:24:23.673Z,17.50
2017-08-25T21:26:52.167Z,17.50
2017-08-25T21:29:21.392Z,17.60
2017-08-25T21:31:52.938Z,17.60
2017-08-25T21:34:21.398Z,17.70
2017-08-25T21:36:49.991Z,17.70
2017-08-25T21:39:20.237Z,17.70
2017-08-25T21:41:48.719Z,17.60
2017-08-25T21:44:17.266Z,17.70
2017-08-25T21:46:45.774Z,17.60
2017-08-25T21:49:17.919Z,17.60
2017-08-25T21:51:49.284Z,17.50
2017-08-25T21:54:17.775Z,17.50
2017-08-25T21:56:46.298Z,17.40
2017-08-25T21:59:14.832Z,17.50
2017-08-25T22:01:43.376Z,17.50
2017-08-25T22:04:11.898Z,17.50
2017-08-25T22:06:40.321Z,17.40
2017-08-25T22:09:08.774Z,17.40
2017-08-25T22:11:37.266Z,17.50
2017-08-25T22:14:05.755Z,17.50
2017-08-25T22:16:34.243Z,17.50
2017-08-25T22:19:02.736Z,17.60
2017-08-25T22:21:31.171Z,17.60
2017-08-25T22:23:59.633Z,17.60
2017-08-25T22:26:28.166Z,17.60
2017-08-25T22:28:56.628Z,17.60
2017-08-25T22:31:25.110Z,17.60
2017-08-25T22:33:53.637Z,17.50
2017-08-25T22:36:22.099Z,17.50
2017-08-25T22:38:50.573Z,17.50
2017-08-25T22:41:19.055Z,17.50
2017-08-25T22:43:47.555Z,17.50
2017-08-25T22:46:16.046Z,17.50
2017-08-25T22:48:44.543Z,17.50
2017-08-25T22:51:13.000Z,17.50
2017-08-25T22:53:41.439Z,17.50
2017-08-25T22:56:09.966Z,17.40
2017-08-25T22:58:38.580Z,17.40
2017-08-25T23:01:08.731Z,17.40
2017-08-25T23:03:37.262Z,17.40
2017-08-25T23:06:05.814Z,17.30
2017-08-25T23:08:34.278Z,17.30
2017-08-25T23:11:02.760Z,17.30
2017-08-25T23:13:31.245Z,17.30
2017-08-25T23:15:59.709Z,17.30
2017-08-25T23:18:28.230Z,17.40
2017-08-25T23:20:56.698Z,17.60
2017-08-25T23:23:25.160Z,17.70
2017-08-25T23:25:53.694Z,17.70
2017-08-25T23:28:22.146Z,17.70
2017-08-25T23:30:50.595Z,17.70
2017-08-25T23:33:19.128Z,17.80
2017-08-25T23:35:47.599Z,17.90
2017-08-25T23:38:16.095Z,17.90
2017-08-25T23:40:44.726Z,17.80
2017-08-25T23:43:13.170Z,17.70
2017-08-25T23:45:41.649Z,17.70
2017-08-25T23:48:10.136Z,17.70
2017-08-25T23:50:38.594Z,17.90
2017-08-25T23:53:07.262Z,17.90
2017-08-25T23:55:36.531Z,17.80
2017-08-25T23:58:07.280Z,17.90
